createdAt,value
2019-03-15T00:01:43.390Z,99840.23
2019-03-15T00:04:14.203Z,99843.28
2019-03-15T00:06:45.110Z,99839.83
2019-03-15T00:09:15.998Z,99841.23
2019-03-15T00:11:46.805Z,99829.00
2019-03-15T00:14:17.656Z,99834.19
2019-03-15T00:16:48.414Z,99827.22
2019-03-15T00:19:19.358Z,99821.27
2019-03-15T00:21:50.983Z,99816.54
2019-03-15T00:24:21.779Z,99819.98
2019-03-15T00:26:52.573Z,99815.58
2019-03-15T00:29:23.504Z,99820.99
2019-03-15T00:31:55.356Z,99826.68
2019-03-15T00:34:26.228Z,99821.32
2019-03-15T00:36:57.034Z,99814.27
2019-03-15T00:39:27.858Z,99808.07
2019-03-15T00:41:58.647Z,99812.08
2019-03-15T00:44:29.428Z,99809.84
2019-03-15T00:47:00.227Z,99812.64
2019-03-15T00:49:32.112Z,99810.53
2019-03-15T00:52:02.930Z,99814.23
2019-03-15T00:54:33.749Z,99813.77
2019-03-15T00:57:05.608Z,99809.91
2019-03-15T00:59:36.418Z,99802.59
2019-03-15T01:02:07.192Z,99803.44
2019-03-15T01:04:38.028Z,99798.03
2019-03-15T01:07:08.928Z,99804.30
2019-03-15T01:09:40.831Z,99798.13
2019-03-15T01:12:11.715Z,99804.22
2019-03-15T01:14:42.618Z,99800.34
2019-03-15T01:17:14.522Z,99791.17
2019-03-15T01:19:45.346Z,99795.13
2019-03-15T01:22:16.998Z,99793.80
2019-03-15T01:24:47.794Z,99793.80
2019-03-15T01:27:18.645Z,99795.75
2019-03-15T01:29:49.621Z,99794.56
2019-03-15T01:32:20.435Z,99791.80
2019-03-15T01:34:51.281Z,99791.02
2019-03-15T01:37:22.084Z,99796.34
2019-03-15T01:39:52.914Z,99790.30
2019-03-15T01:42:23.718Z,99792.23
2019-03-15T01:44:54.582Z,99787.50
2019-03-15T01:47:25.443Z,99793.27
2019-03-15T01:49:56.249Z,99780.55
2019-03-15T01:52:27.051Z,99778.33
2019-03-15T01:54:57.943Z,99778.86
2019-03-15T01:57:28.847Z,99781.09
2019-03-15T01:59:59.714Z,99781.98
2019-03-15T02:02:30.535Z,99772.84
2019-03-15T02:05:01.406Z,99768.89
2019-03-15T02:07:32.279Z,99772.35
2019-03-15T02:10:03.609Z,99772.89
2019-03-15T02:12:34.411Z,99765.03
2019-03-15T02:15:09.340Z,99765.36
2019-03-15T02:17:40.148Z,99772.02
2019-03-15T02:20:10.984Z,99772.60
2019-03-15T02:22:42.804Z,99776.10
2019-03-15T02:25:13.635Z,99778.45
2019-03-15T02:27:44.558Z,99775.69
2019-03-15T02:30:21.546Z,99777.54
2019-03-15T02:32:53.266Z,99777.42
2019-03-15T02:35:24.111Z,99776.97
2019-03-15T02:37:54.908Z,99777.83
2019-03-15T02:40:25.783Z,99778.28
2019-03-15T02:42:56.609Z,99783.34
2019-03-15T02:45:27.476Z,99785.77
2019-03-15T02:47:58.324Z,99782.36
2019-03-15T02:50:29.426Z,99780.63
2019-03-15T02:53:00.614Z,99794.22
2019-03-15T02:55:31.473Z,99789.84
2019-03-15T02:58:02.401Z,99787.29
2019-03-15T03:00:33.259Z,99788.19
2019-03-15T03:03:04.064Z,99783.50
2019-03-15T03:05:34.999Z,99777.41
2019-03-15T03:08:05.930Z,99772.92
2019-03-15T03:10:36.791Z,99771.23
2019-03-15T03:13:08.652Z,99773.57
2019-03-15T03:15:39.593Z,99769.09
2019-03-15T03:18:10.534Z,99769.12
2019-03-15T03:20:41.409Z,99763.52
2019-03-15T03:23:14.108Z,99759.20
2019-03-15T03:25:45.046Z,99761.83
2019-03-15T03:28:15.836Z,99761.84
2019-03-15T03:30:47.165Z,99756.23
2019-03-15T03:33:18.280Z,99762.36
2019-03-15T03:35:49.106Z,99759.31
2019-03-15T03:38:19.920Z,99758.52
2019-03-15T03:40:50.845Z,99763.30
2019-03-15T03:43:21.592Z,99765.17
2019-03-15T03:45:52.496Z,99767.47
2019-03-15T03:48:23.283Z,99763.52
2019-03-15T03:50:54.129Z,99771.83
2019-03-15T03:53:25.877Z,99770.55
2019-03-15T03:56:01.338Z,99768.38
2019-03-15T03:58:39.281Z,99766.23
2019-03-15T04:01:09.343Z,99767.69
2019-03-15T04:03:44.830Z,99766.81
2019-03-15T04:06:15.671Z,99772.50
2019-03-15T04:08:48.132Z,99770.59
2019-03-15T04:11:19.319Z,99767.66
2019-03-15T04:13:51.731Z,99767.38
2019-03-15T04:16:22.783Z,99763.80
2019-03-15T04:18:55.965Z,99768.62
2019-03-15T04:21:28.485Z,99771.36
2019-03-15T04:24:00.084Z,99768.31
2019-03-15T04:26:32.878Z,99763.95
2019-03-15T04:29:03.658Z,99764.56
2019-03-15T04:31:34.770Z,99765.43
2019-03-15T04:34:05.903Z,99765.88
2019-03-15T04:36:36.833Z,99760.62
2019-03-15T04:39:08.084Z,99758.02
2019-03-15T04:41:40.627Z,99760.20
2019-03-15T04:44:17.833Z,99757.09
2019-03-15T04:46:48.687Z,99762.83
2019-03-15T04:49:19.505Z,99759.78
2019-03-15T04:51:50.435Z,99768.92
2019-03-15T04:54:21.216Z,99760.65
2019-03-15T04:56:54.701Z,99761.80
2019-03-15T04:59:26.957Z,99767.92
2019-03-15T05:01:59.559Z,99766.16
2019-03-15T05:04:30.419Z,99765.84
2019-03-15T05:07:01.433Z,99761.73
2019-03-15T05:09:32.392Z,99758.72
2019-03-15T05:12:06.467Z,99767.89
2019-03-15T05:14:39.034Z,99762.11
2019-03-15T05:17:09.961Z,99754.59
2019-03-15T05:19:40.913Z,99767.13
2019-03-15T05:22:11.847Z,99764.19
2019-03-15T05:24:43.883Z,99760.62
2019-03-15T05:27:14.952Z,99764.01
2019-03-15T05:29:47.939Z,99770.17
2019-03-15T05:32:18.830Z,99769.23
2019-03-15T05:34:50.740Z,99768.75
2019-03-15T05:37:26.159Z,99769.95
2019-03-15T05:39:58.608Z,99769.12
2019-03-15T05:42:32.115Z,99765.28
2019-03-15T05:45:02.435Z,99765.52
2019-03-15T05:47:35.972Z,99768.23
2019-03-15T05:50:15.055Z,99771.34
2019-03-15T05:52:46.343Z,99774.36
2019-03-15T05:55:17.318Z,99763.82
2019-03-15T05:57:48.299Z,99776.05
2019-03-15T06:00:22.755Z,99769.88
2019-03-15T06:02:54.892Z,99774.61
2019-03-15T06:05:26.877Z,99779.21
2019-03-15T06:07:58.024Z,99777.12
2019-03-15T06:10:30.057Z,99781.20
2019-03-15T06:13:01.400Z,99779.80
2019-03-15T06:15:32.478Z,99778.89
2019-03-15T06:18:06.755Z,99781.13
2019-03-15T06:20:37.696Z,99786.43
2019-03-15T06:23:08.650Z,99781.20
2019-03-15T06:25:43.336Z,99791.70
2019-03-15T06:28:14.446Z,99783.84
2019-03-15T06:30:47.213Z,99782.64
2019-03-15T06:33:19.754Z,99785.64
2019-03-15T06:35:50.867Z,99781.48
2019-03-15T06:38:33.498Z,99783.80
2019-03-15T06:41:00.352Z,99776.21
2019-03-15T06:43:31.613Z,99776.30
2019-03-15T06:46:02.596Z,99772.09
2019-03-15T06:48:33.977Z,99771.61
2019-03-15T06:51:09.112Z,99771.83
2019-03-15T06:53:38.672Z,99770.84
2019-03-15T06:56:09.650Z,99768.76
2019-03-15T06:58:40.701Z,99768.05
2019-03-15T07:01:13.313Z,99761.55
2019-03-15T07:03:44.459Z,99766.58
2019-03-15T07:06:15.495Z,99765.09
2019-03-15T07:08:46.440Z,99760.20
2019-03-15T07:11:17.938Z,99755.48
2019-03-15T07:13:48.980Z,99757.67
2019-03-15T07:16:19.998Z,99756.18
2019-03-15T07:18:51.025Z,99745.73
2019-03-15T07:21:22.182Z,99749.87
2019-03-15T07:23:53.057Z,99756.08
2019-03-15T07:26:26.359Z,99749.00
2019-03-15T07:28:57.544Z,99752.45
2019-03-15T07:31:28.526Z,99742.14
2019-03-15T07:33:59.774Z,99748.56
2019-03-15T07:36:30.846Z,99741.53
2019-03-15T07:39:01.955Z,99743.86
2019-03-15T07:41:33.114Z,99742.92
2019-03-15T07:44:04.290Z,99741.89
2019-03-15T07:46:35.430Z,99740.30
2019-03-15T07:49:07.390Z,99736.33
2019-03-15T07:51:38.985Z,99741.48
2019-03-15T07:54:11.482Z,99738.50
2019-03-15T07:56:42.765Z,99738.67
2019-03-15T07:59:14.218Z,99731.20
2019-03-15T08:01:45.181Z,99732.30
2019-03-15T08:04:19.785Z,99736.98
2019-03-15T08:06:50.771Z,99727.02
2019-03-15T08:09:21.917Z,99731.84
2019-03-15T08:11:53.084Z,99728.84
2019-03-15T08:14:24.178Z,99719.85
2019-03-15T08:16:55.353Z,99724.33
2019-03-15T08:19:26.944Z,99724.46
2019-03-15T08:21:58.115Z,99729.92
2019-03-15T08:24:51.047Z,99724.66
2019-03-15T08:27:16.402Z,99719.87
2019-03-15T08:29:47.712Z,99718.56
2019-03-15T08:32:18.794Z,99712.29
2019-03-15T08:34:49.878Z,99709.96
2019-03-15T08:37:20.862Z,99710.72
2019-03-15T08:39:51.816Z,99710.92
2019-03-15T08:42:22.881Z,99710.29
2019-03-15T08:44:54.973Z,99709.95
2019-03-15T08:47:25.928Z,99704.19
2019-03-15T08:49:57.067Z,99711.44
2019-03-15T08:52:28.089Z,99708.50
2019-03-15T08:55:05.171Z,99709.81
2019-03-15T08:57:32.029Z,99706.06
2019-03-15T09:00:03.572Z,99701.64
2019-03-15T09:02:34.685Z,99702.41
2019-03-15T09:05:08.463Z,99689.19
2019-03-15T09:07:39.783Z,99688.62
2019-03-15T09:10:22.558Z,99686.09
2019-03-15T09:12:50.695Z,99686.20
2019-03-15T09:15:24.823Z,99692.82
2019-03-15T09:17:58.416Z,99686.13
2019-03-15T09:20:30.602Z,99686.89
2019-03-15T09:23:02.249Z,99682.01
2019-03-15T09:25:35.241Z,99683.73
2019-03-15T09:28:07.198Z,99670.59
2019-03-15T09:30:42.063Z,99676.33
2019-03-15T09:33:14.943Z,99679.94
2019-03-15T09:35:48.728Z,99668.06
2019-03-15T09:38:19.767Z,99670.30
2019-03-15T09:40:50.825Z,99666.59
2019-03-15T09:43:26.442Z,99665.59
2019-03-15T09:45:59.053Z,99667.88
2019-03-15T09:48:33.575Z,99666.70
2019-03-15T09:51:07.863Z,99667.33
2019-03-15T09:53:41.583Z,99664.42
2019-03-15T09:56:13.226Z,99675.02
2019-03-15T09:58:48.896Z,99657.44
2019-03-15T10:01:34.362Z,99654.48
2019-03-15T10:03:52.728Z,99650.03
2019-03-15T10:06:29.159Z,99649.42
2019-03-15T10:08:56.736Z,99653.12
2019-03-15T10:11:33.546Z,99645.65
2019-03-15T10:14:06.688Z,99648.77
2019-03-15T10:16:38.427Z,99639.60
2019-03-15T10:19:09.988Z,99636.50
2019-03-15T10:21:42.740Z,99635.42
2019-03-15T10:24:18.457Z,99633.67
2019-03-15T10:26:49.886Z,99632.16
2019-03-15T10:29:29.555Z,99627.35
2019-03-15T10:32:03.252Z,99621.54
2019-03-15T10:34:37.701Z,99626.94
2019-03-15T10:37:10.751Z,99623.12
2019-03-15T10:39:41.790Z,99619.30
2019-03-15T10:42:13.088Z,99614.47
2019-03-15T10:44:44.244Z,99611.63
2019-03-15T10:47:19.908Z,99614.81
2019-03-15T10:49:56.093Z,99604.67
2019-03-15T10:52:30.708Z,99612.75
2019-03-15T10:55:01.903Z,99614.84
2019-03-15T10:57:34.687Z,99607.52
2019-03-15T11:00:21.272Z,99599.52
2019-03-15T11:02:55.432Z,99601.36
2019-03-15T11:05:29.225Z,99590.71
2019-03-15T11:08:04.853Z,99591.58
2019-03-15T11:10:36.154Z,99585.83
2019-03-15T11:13:08.025Z,99586.89
2019-03-15T11:15:40.844Z,99584.28
2019-03-15T11:18:14.719Z,99586.60
2019-03-15T11:20:47.470Z,99587.64
2019-03-15T11:23:21.279Z,99581.19
2019-03-15T11:25:56.852Z,99587.23
2019-03-15T11:28:28.567Z,99580.41
2019-03-15T11:31:00.904Z,99578.73
2019-03-15T11:33:35.214Z,99580.52
2019-03-15T11:36:06.487Z,99587.88
2019-03-15T11:38:37.822Z,99572.73
2019-03-15T11:41:08.876Z,99578.96
2019-03-15T11:43:39.990Z,99579.48
2019-03-15T11:46:11.057Z,99583.73
2019-03-15T11:48:42.341Z,99573.69
2019-03-15T11:51:13.523Z,99571.15
2019-03-15T11:53:44.525Z,99570.62
2019-03-15T11:56:26.515Z,99556.69
2019-03-15T11:58:48.438Z,99560.58
2019-03-15T12:01:19.456Z,99552.36
2019-03-15T12:03:53.282Z,99559.16
2019-03-15T12:06:23.674Z,99550.63
2019-03-15T12:08:55.142Z,99547.16
2019-03-15T12:11:26.159Z,99551.67
2019-03-15T12:13:57.168Z,99559.87
2019-03-15T12:16:28.201Z,99556.98
2019-03-15T12:18:59.285Z,99559.52
2019-03-15T12:21:30.248Z,99552.06
2019-03-15T12:24:01.373Z,99542.58
2019-03-15T12:26:40.245Z,99542.50
2019-03-15T12:29:36.570Z,99543.41
2019-03-15T12:31:42.058Z,99552.67
2019-03-15T12:34:19.508Z,99545.62
2019-03-15T12:36:53.489Z,99549.69
2019-03-15T12:39:27.722Z,99546.47
2019-03-15T12:42:07.147Z,99546.24
2019-03-15T12:44:38.227Z,99545.47
2019-03-15T12:47:11.958Z,99538.00
2019-03-15T12:49:43.130Z,99545.45
2019-03-15T12:52:23.406Z,99548.17
2019-03-15T12:54:56.219Z,99548.78
2019-03-15T12:57:27.363Z,99546.63
2019-03-15T13:00:00.268Z,99535.28
2019-03-15T13:02:34.666Z,99527.97
2019-03-15T13:05:05.879Z,99524.77
2019-03-15T13:07:39.645Z,99534.11
2019-03-15T13:10:19.990Z,99525.11
2019-03-15T13:12:51.249Z,99525.02
2019-03-15T13:15:22.210Z,99528.22
2019-03-15T13:17:55.770Z,99529.23
2019-03-15T13:20:30.803Z,99527.87
2019-03-15T13:23:03.626Z,99520.86
2019-03-15T13:25:37.364Z,99522.91
2019-03-15T13:28:09.677Z,99521.41
2019-03-15T13:30:41.016Z,99524.77
2019-03-15T13:33:22.097Z,99524.61
2019-03-15T13:35:59.133Z,99519.72
2019-03-15T13:38:31.774Z,99518.25
2019-03-15T13:41:05.092Z,99513.48
2019-03-15T13:43:38.974Z,99511.61
2019-03-15T13:46:12.753Z,99508.84
2019-03-15T13:48:43.886Z,99510.73
2019-03-15T13:51:15.007Z,99510.34
2019-03-15T13:53:49.176Z,99513.80
2019-03-15T13:56:20.368Z,99519.17
2019-03-15T13:58:57.022Z,99508.53
2019-03-15T14:01:24.440Z,99520.58
2019-03-15T14:03:55.484Z,99502.00
2019-03-15T14:06:26.734Z,99509.39
2019-03-15T14:08:57.760Z,99503.79
2019-03-15T14:14:39.027Z,99472.57
2019-03-15T14:17:10.223Z,99496.88
2019-03-15T14:19:50.281Z,99498.47
2019-03-15T14:22:22.537Z,99504.59
2019-03-15T14:24:54.177Z,99503.66
2019-03-15T14:27:36.946Z,99496.28
2019-03-15T14:29:58.456Z,99500.51
2019-03-15T14:32:29.694Z,99501.47
2019-03-15T14:38:05.856Z,99495.84
2019-03-15T14:40:40.038Z,99500.19
2019-03-15T14:43:11.145Z,99499.63
2019-03-15T14:45:42.239Z,99493.94
2019-03-15T14:48:13.373Z,99495.00
2019-03-15T14:50:44.460Z,99496.55
2019-03-15T14:53:15.542Z,99501.48
2019-03-15T14:55:46.971Z,99499.55
2019-03-15T14:58:19.601Z,99496.55
2019-03-15T15:01:05.261Z,99491.88
2019-03-15T15:03:39.069Z,99495.73
2019-03-15T15:06:10.104Z,99496.80
2019-03-15T15:12:10.671Z,99499.48
2019-03-15T15:18:01.724Z,99491.73
2019-03-15T15:20:32.936Z,99498.84
2019-03-15T15:23:06.057Z,99497.72
2019-03-15T15:25:37.183Z,99505.88
2019-03-15T15:28:08.429Z,99502.92
2019-03-15T15:30:39.480Z,99492.69
2019-03-15T15:33:10.784Z,99499.02
2019-03-15T15:35:44.067Z,99498.94
2019-03-15T15:38:15.534Z,99505.73
2019-03-15T15:40:47.010Z,99510.77
2019-03-15T15:43:18.092Z,99502.09
2019-03-15T15:45:49.285Z,99503.66
2019-03-15T15:48:20.553Z,99511.19
2019-03-15T15:50:51.774Z,99510.50
2019-03-15T15:53:22.878Z,99514.23
2019-03-15T15:55:54.008Z,99508.77
2019-03-15T15:58:25.136Z,99513.36
2019-03-15T16:00:56.189Z,99519.86
2019-03-15T16:03:27.101Z,99515.81
2019-03-15T16:05:58.248Z,99516.53
2019-03-15T16:08:31.027Z,99513.47
2019-03-15T16:11:01.996Z,99508.63
2019-03-15T16:13:33.169Z,99506.58
2019-03-15T16:16:04.178Z,99504.39
2019-03-15T16:18:35.279Z,99518.58
2019-03-15T16:21:06.459Z,99515.71
2019-03-15T16:23:38.700Z,99522.99
2019-03-15T16:26:09.907Z,99525.54
2019-03-15T16:28:40.908Z,99518.91
2019-03-15T16:31:12.041Z,99521.56
2019-03-15T16:33:43.252Z,99524.86
2019-03-15T16:36:15.458Z,99526.14
2019-03-15T16:38:46.832Z,99528.33
2019-03-15T16:41:17.923Z,99528.19
2019-03-15T16:43:49.028Z,99528.65
2019-03-15T16:46:20.263Z,99526.23
2019-03-15T16:49:01.732Z,99532.58
2019-03-15T16:51:33.950Z,99536.70
2019-03-15T16:54:04.979Z,99534.37
2019-03-15T16:56:39.705Z,99532.42
2019-03-15T16:59:13.934Z,99532.73
2019-03-15T17:01:45.674Z,99528.86
2019-03-15T17:04:16.796Z,99533.47
2019-03-15T17:06:47.860Z,99532.31
2019-03-15T17:09:21.427Z,99523.90
2019-03-15T17:11:54.186Z,99524.13
2019-03-15T17:14:26.117Z,99524.59
2019-03-15T17:16:57.436Z,99531.38
2019-03-15T17:19:30.731Z,99526.71
2019-03-15T17:22:04.932Z,99527.30
2019-03-15T17:24:39.732Z,99523.63
2019-03-15T17:27:11.973Z,99526.03
2019-03-15T17:29:43.310Z,99523.83
2019-03-15T17:32:15.883Z,99521.44
2019-03-15T17:38:00.694Z,99527.32
2019-03-15T17:40:32.214Z,99528.61
2019-03-15T17:43:05.900Z,99531.05
2019-03-15T17:45:41.421Z,99536.70
2019-03-15T17:48:14.787Z,99536.52
2019-03-15T17:50:45.887Z,99536.76
2019-03-15T17:53:16.827Z,99534.72
2019-03-15T17:55:49.637Z,99532.30
2019-03-15T17:58:21.703Z,99534.11
2019-03-15T18:00:55.175Z,99526.91
2019-03-15T18:03:26.337Z,99528.37
2019-03-15T18:05:59.034Z,99529.38
2019-03-15T18:08:33.372Z,99532.23
2019-03-15T18:11:05.396Z,99535.95
2019-03-15T18:13:40.713Z,99532.38
2019-03-15T18:16:11.825Z,99534.70
2019-03-15T18:18:44.765Z,99533.84
2019-03-15T18:21:15.864Z,99536.17
2019-03-15T18:23:54.383Z,99535.37
2019-03-15T18:26:30.174Z,99542.11
2019-03-15T18:29:04.105Z,99544.09
2019-03-15T18:31:35.268Z,99543.57
2019-03-15T18:34:06.648Z,99531.53
2019-03-15T18:36:42.868Z,99534.63
2019-03-15T18:39:19.938Z,99538.27
2019-03-15T18:41:52.057Z,99535.25
2019-03-15T18:44:27.392Z,99535.36
2019-03-15T18:46:58.455Z,99531.02
2019-03-15T18:49:29.599Z,99530.13
2019-03-15T18:52:01.188Z,99534.90
2019-03-15T18:54:32.966Z,99535.95
2019-03-15T18:57:05.181Z,99538.94
2019-03-15T18:59:40.251Z,99538.46
2019-03-15T19:02:11.758Z,99535.03
2019-03-15T19:04:44.714Z,99535.84
2019-03-15T19:07:18.579Z,99539.78
2019-03-15T19:09:49.536Z,99539.59
2019-03-15T19:12:22.081Z,99535.14
2019-03-15T19:14:53.079Z,99537.92
2019-03-15T19:17:25.094Z,99530.94
2019-03-15T19:20:03.451Z,99529.08
2019-03-15T19:22:36.222Z,99526.44
2019-03-15T19:25:11.883Z,99528.83
2019-03-15T19:27:42.878Z,99524.92
2019-03-15T19:30:19.930Z,99530.91
2019-03-15T19:32:52.547Z,99527.70
2019-03-15T19:35:27.071Z,99531.66
2019-03-15T19:38:02.455Z,99532.64
2019-03-15T19:40:34.324Z,99530.91
2019-03-15T19:43:07.287Z,99532.25
2019-03-15T19:45:39.087Z,99524.46
2019-03-15T19:48:10.161Z,99520.61
2019-03-15T19:50:48.729Z,99526.34
2019-03-15T19:53:21.294Z,99520.74
2019-03-15T19:55:52.421Z,99513.55
2019-03-15T19:58:25.859Z,99505.97
2019-03-15T20:01:00.243Z,99515.00
2019-03-15T20:03:43.573Z,99513.86
2019-03-15T20:06:03.827Z,99508.91
2019-03-15T20:08:39.307Z,99510.77
2019-03-15T20:11:10.358Z,99499.41
2019-03-15T20:13:41.627Z,99509.83
2019-03-15T20:16:15.879Z,99509.84
2019-03-15T20:18:46.894Z,99507.77
2019-03-15T20:21:19.462Z,99498.05
2019-03-15T20:23:50.475Z,99492.14
2019-03-15T20:26:23.791Z,99493.98
2019-03-15T20:28:58.437Z,99500.58
2019-03-15T20:31:36.524Z,99495.43
2019-03-15T20:34:10.452Z,99499.34
2019-03-15T20:36:46.164Z,99491.60
2019-03-15T20:39:22.547Z,99493.70
2019-03-15T20:41:57.745Z,99499.69
2019-03-15T20:44:30.667Z,99495.84
2019-03-15T20:47:03.414Z,99497.87
2019-03-15T20:49:52.717Z,99486.50
2019-03-15T20:52:25.337Z,99489.09
2019-03-15T20:54:56.271Z,99482.48
2019-03-15T20:57:29.933Z,99477.59
2019-03-15T21:00:00.871Z,99471.14
2019-03-15T21:02:32.015Z,99467.16
2019-03-15T21:05:08.034Z,99473.19
2019-03-15T21:07:43.787Z,99473.25
2019-03-15T21:10:17.113Z,99475.83
2019-03-15T21:12:48.192Z,99476.53
2019-03-15T21:15:19.102Z,99473.03
2019-03-15T21:17:50.237Z,99476.20
2019-03-15T21:20:29.590Z,99477.34
2019-03-15T21:23:03.733Z,99468.16
2019-03-15T21:25:38.026Z,99471.20
2019-03-15T21:28:10.319Z,99461.82
2019-03-15T21:30:48.492Z,99457.64
2019-03-15T21:33:16.885Z,99456.86
2019-03-15T21:35:51.567Z,99450.53
2019-03-15T21:38:23.039Z,99454.49
2019-03-15T21:40:58.232Z,99449.63
2019-03-15T21:43:29.340Z,99451.69
2019-03-15T21:46:01.858Z,99442.84
2019-03-15T21:48:32.651Z,99435.20
2019-03-15T21:51:03.702Z,99428.14
2019-03-15T21:53:34.804Z,99423.45
2019-03-15T21:56:07.857Z,99426.36
2019-03-15T21:58:38.825Z,99422.48
2019-03-15T22:01:12.583Z,99425.84
2019-03-15T22:03:45.235Z,99430.65
2019-03-15T22:06:16.147Z,99431.00
2019-03-15T22:08:47.087Z,99436.73
2019-03-15T22:11:21.315Z,99423.61
2019-03-15T22:13:50.709Z,99429.08
2019-03-15T22:16:27.051Z,99420.76
2019-03-15T22:18:57.954Z,99419.36
2019-03-15T22:21:28.869Z,99419.90
2019-03-15T22:23:59.741Z,99424.31
2019-03-15T22:26:33.518Z,99411.06
2019-03-15T22:29:04.331Z,99411.25
2019-03-15T22:31:35.371Z,99405.75
2019-03-15T22:34:06.264Z,99404.45
2019-03-15T22:36:37.124Z,99403.46
2019-03-15T22:39:08.151Z,99401.28
2019-03-15T22:41:39.072Z,99393.95
2019-03-15T22:44:10.719Z,99392.77
2019-03-15T22:46:41.726Z,99392.09
2019-03-15T22:49:12.607Z,99387.22
2019-03-15T22:51:43.625Z,99387.36
2019-03-15T22:54:14.547Z,99381.16
2019-03-15T22:56:45.465Z,99376.80
2019-03-15T22:59:16.287Z,99368.07
2019-03-15T23:01:47.120Z,99363.67
2019-03-15T23:04:18.089Z,99358.39
2019-03-15T23:06:48.899Z,99361.23
2019-03-15T23:09:19.786Z,99354.16
2019-03-15T23:11:50.721Z,99350.53
2019-03-15T23:14:21.553Z,99346.78
2019-03-15T23:16:52.479Z,99349.28
2019-03-15T23:19:23.425Z,99339.90
2019-03-15T23:21:55.333Z,99337.91
2019-03-15T23:24:26.149Z,99333.67
2019-03-15T23:26:57.137Z,99329.80
2019-03-15T23:29:28.030Z,99325.32
2019-03-15T23:31:59.034Z,99317.86
2019-03-15T23:34:30.135Z,99320.64
2019-03-15T23:37:01.268Z,99321.88
2019-03-15T23:39:32.250Z,99322.68
2019-03-15T23:42:03.363Z,99322.08
2019-03-15T23:44:35.208Z,99313.61
2019-03-15T23:47:06.106Z,99312.03
2019-03-15T23:49:37.155Z,99304.54
2019-03-15T23:52:08.270Z,99296.84
2019-03-15T23:54:39.163Z,99293.35
2019-03-15T23:57:10.061Z,99295.13
2019-03-15T23:59:40.913Z,99291.42
